Time;durP1;ratioP1;P1;durP2;ratioP2;P2;SDS_P1;SDS_P2;PMS_P1;PMS_P2;Temp;Humidity;BMP_temperature;BMP_pressure;BME280_temperature;BME280_humidity;BME280_pressure;Samples;Min_cycle;Max_cycle;Signal;HPM_P1;HPM_P2
2024/04/01 00:00:01;;;;;;;2.35;0.82;;;;;;;11.13;100.00;93734.66;1031512;28;20518;-72
2024/04/01 00:00:32;;;;;;;1.65;0.80;;;;;;;11.11;100.00;93728.97;1027338;28;20030;-71
2024/04/01 00:01:02;;;;;;;3.97;1.08;;;;;;;11.03;100.00;93722.66;1035158;28;20034;-71
2024/04/01 00:01:33;;;;;;;1.98;0.85;;;;;;;11.06;100.00;93724.66;1027453;28;20034;-71
2024/04/01 00:02:03;;;;;;;1.80;0.70;;;;;;;10.99;100.00;93722.50;1031257;28;20559;-71
2024/04/01 00:02:34;;;;;;;2.85;1.27;;;;;;;11.02;100.00;93729.75;1039275;28;20022;-72
2024/04/01 00:03:04;;;;;;;1.10;0.60;;;;;;;11.03;100.00;93728.69;1035636;28;20490;-71
2024/04/01 00:03:35;;;;;;;3.90;1.10;;;;;;;11.04;100.00;93724.97;1039355;28;20045;-71
2024/04/01 00:04:05;;;;;;;5.15;0.93;;;;;;;11.03;100.00;93733.16;1035206;28;20118;-71
2024/04/01 00:04:36;;;;;;;2.83;0.88;;;;;;;11.01;100.00;93727.47;1027138;28;20094;-71
2024/04/01 00:05:06;;;;;;;2.25;0.88;;;;;;;10.89;100.00;93704.50;1031207;28;20042;-72
2024/04/01 00:05:37;;;;;;;1.30;0.65;;;;;;;11.02;100.00;93724.50;1031077;28;20593;-72
2024/04/01 00:06:07;;;;;;;2.95;0.90;;;;;;;11.00;100.00;93718.81;1031333;28;20023;-71
2024/04/01 00:06:37;;;;;;;3.97;1.00;;;;;;;10.99;100.00;93719.88;1035327;28;20064;-73
2024/04/01 00:07:08;;;;;;;1.13;0.45;;;;;;;10.98;100.00;93718.34;1027196;28;20030;-71
2024/04/01 00:07:39;;;;;;;1.52;0.45;;;;;;;10.97;100.00;93718.69;1035132;28;20085;-71
2024/04/01 00:08:09;;;;;;;1.08;0.40;;;;;;;11.00;100.00;93716.19;1031359;28;20037;-71
2024/04/01 00:08:39;;;;;;;1.08;0.40;;;;;;;11.01;100.00;93716.97;1031312;28;20030;-72
2024/04/01 00:09:10;;;;;;;0.65;0.25;;;;;;;10.95;100.00;93708.47;1031824;28;20030;-71
2024/04/01 00:09:40;;;;;;;4.35;0.70;;;;;;;11.01;100.00;93709.84;1035477;28;20033;-71
2024/04/01 00:10:11;;;;;;;1.27;0.30;;;;;;;11.00;100.00;93707.53;1043458;28;20422;-71
2024/04/01 00:10:41;;;;;;;0.73;0.50;;;;;;;11.01;100.00;93706.47;1033694;28;20026;-71
2024/04/01 00:11:12;;;;;;;5.68;0.75;;;;;;;11.01;100.00;93707.22;1023128;29;20032;-72
2024/04/01 00:11:42;;;;;;;1.83;0.80;;;;;;;11.04;100.00;93711.84;1019205;29;20040;-71
2024/04/01 00:12:13;;;;;;;2.40;0.63;;;;;;;11.01;100.00;93712.47;1019443;28;20032;-71
2024/04/01 00:12:43;;;;;;;1.30;0.70;;;;;;;10.99;100.00;93706.75;1034973;28;20030;-72
2024/04/01 00:13:16;;;;;;;1.20;0.47;;;;;;;11.03;100.00;93712.16;1027115;28;20102;-71
2024/04/01 00:13:48;;;;;;;0.65;0.47;;;;;;;11.01;100.00;93712.47;1023262;29;20046;-71
2024/04/01 00:14:19;;;;;;;1.20;0.25;;;;;;;11.00;100.00;93721.44;1026027;28;20034;-71
2024/04/01 00:14:49;;;;;;;1.05;0.40;;;;;;;11.02;100.00;93724.50;1028417;28;20034;-71
2024/04/01 00:15:21;;;;;;;1.70;0.57;;;;;;;11.00;100.00;93723.28;1035371;28;20022;-71
2024/04/01 00:15:52;;;;;;;2.28;0.63;;;;;;;11.00;100.00;93726.69;1035163;28;20092;-72
2024/04/01 00:16:22;;;;;;;2.42;0.60;;;;;;;11.04;100.00;93722.34;1035682;28;20092;-71
2024/04/01 00:16:53;;;;;;;1.40;0.50;;;;;;;10.99;100.00;93714.63;1039328;28;20058;-72
2024/04/01 00:17:23;;;;;;;1.25;0.60;;;;;;;10.97;100.00;93710.81;1035316;28;20193;-72
2024/04/01 00:17:54;;;;;;;1.20;0.40;;;;;;;11.03;100.00;93714.78;1030300;28;20034;-71
2024/04/01 00:18:24;;;;;;;2.33;0.85;;;;;;;11.03;100.00;93714.78;1031125;28;20026;-71
2024/04/01 00:18:55;;;;;;;1.85;0.60;;;;;;;11.04;100.00;93717.09;1030702;28;20035;-71
2024/04/01 00:19:25;;;;;;;5.00;0.75;;;;;;;11.01;100.00;93707.22;1035219;28;20148;-71
2024/04/01 00:19:55;;;;;;;5.88;0.60;;;;;;;10.97;100.00;93711.56;1031087;28;20041;-72
2024/04/01 00:20:26;;;;;;;1.95;0.68;;;;;;;11.00;100.00;93710.94;1027211;28;20042;-71
2024/04/01 00:20:57;;;;;;;1.08;0.60;;;;;;;11.01;100.00;93716.97;1026955;28;20436;-71
2024/04/01 00:21:28;;;;;;;1.83;0.40;;;;;;;11.00;100.00;93726.69;1030966;28;20542;-71
2024/04/01 00:21:58;;;;;;;7.68;0.70;;;;;;;10.97;100.00;93719.44;1027183;28;20035;-72
2024/04/01 00:22:29;;;;;;;5.53;0.85;;;;;;;11.00;100.00;93726.69;1026957;28;20039;-71
2024/04/01 00:22:59;;;;;;;2.50;0.88;;;;;;;10.98;100.00;93726.22;1027111;28;20082;-71
2024/04/01 00:23:29;;;;;;;3.85;0.80;;;;;;;10.97;100.00;93724.69;1023197;29;20035;-71
2024/04/01 00:24:00;;;;;;;0.52;0.45;;;;;;;10.98;100.00;93722.84;1023353;28;20782;-71
2024/04/01 00:24:30;;;;;;;3.63;0.30;;;;;;;11.00;100.00;93720.66;1031228;28;20030;-71
2024/04/01 00:25:01;;;;;;;1.60;0.43;;;;;;;10.98;100.00;93718.34;1035304;28;20034;-72
2024/04/01 00:25:32;;;;;;;2.22;0.70;;;;;;;10.97;100.00;93710.81;1039201;28;20032;-72
2024/04/01 00:26:03;;;;;;;4.10;0.88;;;;;;;10.98;100.00;93718.34;1031027;28;20033;-71
2024/04/01 00:26:34;;;;;;;1.35;0.35;;;;;;;10.93;100.00;93713.28;1031123;28;20034;-72
2024/04/01 00:27:05;;;;;;;1.20;0.50;;;;;;;10.97;100.00;93714.19;1027169;28;20034;-71
2024/04/01 00:27:35;;;;;;;4.45;0.50;;;;;;;10.97;100.00;93716.81;1031578;28;20026;-70
2024/04/01 00:28:06;;;;;;;1.15;0.30;;;;;;;10.97;100.00;93711.56;1031268;28;20026;-71
2024/04/01 00:28:36;;;;;;;2.70;0.80;;;;;;;10.98;100.00;93701.84;1031521;28;20037;-71
2024/04/01 00:29:07;;;;;;;1.80;0.77;;;;;;;10.99;100.00;93703.38;1034643;28;20038;-71
2024/04/01 00:29:37;;;;;;;1.25;0.40;;;;;;;11.01;100.00;93695.97;1029455;28;20140;-71
2024/04/01 00:30:08;;;;;;;2.25;0.88;;;;;;;11.00;100.00;93695.19;1035277;28;20030;-71
2024/04/01 00:30:38;;;;;;;3.80;0.63;;;;;;;11.03;100.00;93699.03;1031204;28;20022;-71
2024/04/01 00:31:09;;;;;;;3.10;0.55;;;;;;;11.02;100.00;93703.50;1026922;28;20027;-71
2024/04/01 00:31:40;;;;;;;1.52;0.80;;;;;;;11.02;100.00;93702.75;1027446;28;20033;-71
2024/04/01 00:32:10;;;;;;;3.25;0.70;;;;;;;11.01;100.00;93691.47;1027173;28;20431;-71
2024/04/01 00:32:40;;;;;;;1.05;0.75;;;;;;;11.04;100.00;93698.72;1029386;28;20126;-72
2024/04/01 00:33:11;;;;;;;1.85;0.68;;;;;;;11.07;100.00;93694.72;1035211;28;20507;-71
2024/04/01 00:33:41;;;;;;;4.40;0.80;;;;;;;11.15;100.00;93695.75;1035176;28;20558;-72
2024/04/01 00:34:12;;;;;;;2.65;0.60;;;;;;;11.17;100.00;93694.34;1035284;28;20034;-71
2024/04/01 00:34:42;;;;;;;0.88;0.50;;;;;;;11.14;100.00;93683.72;1039420;28;20064;-71
2024/04/01 00:35:15;;;;;;;1.45;0.50;;;;;;;11.19;100.00;93694.78;1039255;28;20029;-71
2024/04/01 00:35:45;;;;;;;3.63;0.68;;;;;;;11.17;100.00;93699.59;1027086;28;20041;-71
2024/04/01 00:36:16;;;;;;;2.38;0.70;;;;;;;11.20;100.00;93687.69;1026810;28;20719;-71
2024/04/01 00:36:46;;;;;;;3.10;0.63;;;;;;;11.23;100.00;93695.72;1027650;28;20447;-71
2024/04/01 00:37:17;;;;;;;2.95;0.52;;;;;;;11.22;100.00;93696.03;1028250;28;20053;-71
2024/04/01 00:37:47;;;;;;;0.95;0.45;;;;;;;11.23;100.00;93693.09;1031432;28;20096;-71
2024/04/01 00:38:18;;;;;;;0.98;0.50;;;;;;;11.21;100.00;93694.50;1039455;28;20117;-71
2024/04/01 00:38:55;;;;;;;2.97;0.88;;;;;;;11.17;100.00;93701.47;1038569;28;20419;-70
2024/04/01 00:39:26;;;;;;;2.70;0.70;;;;;;;11.18;100.00;93700.38;1034634;28;20101;-71
2024/04/01 00:39:56;;;;;;;2.83;0.57;;;;;;;11.16;100.00;93703.28;1027068;28;20424;-71
2024/04/01 00:40:28;;;;;;;2.05;0.63;;;;;;;11.17;100.00;93698.84;1022868;29;20038;-72
2024/04/01 00:40:58;;;;;;;5.15;1.10;;;;;;;11.11;100.00;93697.47;1024091;28;20015;-71
2024/04/01 00:41:29;;;;;;;2.75;0.40;;;;;;;11.14;100.00;93705.50;1026844;28;20081;-72
2024/04/01 00:41:59;;;;;;;5.68;1.08;;;;;;;11.15;100.00;93693.13;1027103;28;20034;-71
2024/04/01 00:42:30;;;;;;;1.55;0.43;;;;;;;11.16;100.00;93694.66;1018860;29;20026;-71
2024/04/01 00:43:09;;;;;;;4.28;0.70;;;;;;;11.19;100.00;93696.66;1015011;29;20589;-71
2024/04/01 00:43:40;;;;;;;2.20;0.60;;;;;;;11.21;100.00;93689.25;1023108;29;20488;-71
2024/04/01 00:44:10;;;;;;;1.85;0.50;;;;;;;11.23;100.00;93679.19;1022914;29;20026;-71
2024/04/01 00:44:41;;;;;;;3.40;0.60;;;;;;;11.24;100.00;93676.25;1028065;28;20523;-71
2024/04/01 00:45:13;;;;;;;4.80;0.68;;;;;;;11.23;100.00;93666.84;1039180;28;20073;-71
2024/04/01 00:45:45;;;;;;;3.67;0.60;;;;;;;11.30;100.00;93671.56;1023232;28;20490;-71
2024/04/01 00:46:17;;;;;;;2.83;0.60;;;;;;;11.33;100.00;93663.06;1023133;28;20031;-71
2024/04/01 00:46:47;;;;;;;5.57;0.75;;;;;;;11.39;100.00;93661.03;1022987;29;20190;-71
2024/04/01 00:47:18;;;;;;;2.70;0.60;;;;;;;11.39;100.00;93663.66;1026934;28;20113;-71
2024/04/01 00:47:48;;;;;;;3.50;0.57;;;;;;;11.41;100.00;93659.63;1031048;28;20092;-71
2024/04/01 00:48:19;;;;;;;1.90;0.57;;;;;;;11.33;100.00;93650.72;1022782;28;20027;-72
2024/04/01 00:48:49;;;;;;;2.40;0.30;;;;;;;11.40;100.00;93654.69;1022153;29;20027;-71
2024/04/01 00:49:20;;;;;;;2.13;0.45;;;;;;;11.42;100.00;93653.28;1023096;29;20027;-71
2024/04/01 00:49:51;;;;;;;2.47;0.50;;;;;;;11.36;100.00;93644.03;1022833;29;20173;-71
2024/04/01 00:50:21;;;;;;;1.90;0.43;;;;;;;11.43;100.00;93649.56;1022957;29;20023;-71
2024/04/01 00:50:52;;;;;;;1.45;0.50;;;;;;;11.45;100.00;93642.16;1020861;29;20031;-71
2024/04/01 00:51:22;;;;;;;1.40;0.30;;;;;;;11.46;100.00;93643.66;1023005;28;20027;-71
2024/04/01 00:51:53;;;;;;;2.55;0.88;;;;;;;11.44;100.00;93640.63;1027148;28;20480;-71
2024/04/01 00:52:23;;;;;;;1.23;0.40;;;;;;;11.39;100.00;93638.16;1022938;29;20027;-72
2024/04/01 00:52:54;;;;;;;2.53;0.38;;;;;;;11.41;100.00;93636.00;1030984;28;20026;-71
2024/04/01 00:53:24;;;;;;;2.28;0.43;;;;;;;11.43;100.00;93641.69;1031013;28;20026;-71
2024/04/01 00:53:55;;;;;;;2.05;0.40;;;;;;;11.39;100.00;93622.41;1031090;28;20495;-71
2024/04/01 00:54:25;;;;;;;2.60;0.60;;;;;;;11.48;100.00;93632.88;1026190;28;20725;-71
2024/04/01 00:54:56;;;;;;;0.40;0.40;;;;;;;11.47;100.00;93634.72;1030932;28;20029;-73
2024/04/01 00:55:26;;;;;;;1.70;0.50;;;;;;;11.43;100.00;93628.56;1027088;28;20057;-72
2024/04/01 00:55:57;;;;;;;2.53;0.60;;;;;;;11.46;100.00;93630.53;1027002;28;20019;-71
2024/04/01 00:56:27;;;;;;;2.53;0.47;;;;;;;11.39;100.00;93617.16;1026946;28;20023;-71
2024/04/01 00:56:58;;;;;;;0.90;0.43;;;;;;;11.45;100.00;93629.00;1026790;28;20050;-72
2024/04/01 00:57:28;;;;;;;2.97;1.00;;;;;;;11.38;100.00;93615.63;1027122;28;20010;-71
2024/04/01 00:57:59;;;;;;;3.88;0.70;;;;;;;11.44;100.00;93616.97;1027047;28;20044;-71
2024/04/01 00:58:29;;;;;;;1.65;0.68;;;;;;;11.39;100.00;93609.28;1031295;28;20739;-72
2024/04/01 00:59:00;;;;;;;1.30;0.52;;;;;;;11.48;100.00;93614.47;1030630;28;20026;-71
2024/04/01 00:59:30;;;;;;;2.60;0.60;;;;;;;11.45;100.00;93623.75;1031420;28;20485;-72
2024/04/01 01:00:01;;;;;;;4.47;0.65;;;;;;;11.46;100.00;93616.66;1023261;29;20516;-72
2024/04/01 01:00:31;;;;;;;6.15;0.70;;;;;;;11.44;100.00;93614.34;1027065;28;20582;-72
2024/04/01 01:01:03;;;;;;;1.17;0.60;;;;;;;11.43;100.00;93615.41;1022987;29;20027;-72
2024/04/01 01:01:33;;;;;;;1.75;0.43;;;;;;;11.40;100.00;93607.41;1019216;29;20050;-71
2024/04/01 01:02:04;;;;;;;1.17;0.60;;;;;;;11.44;100.00;93609.09;1030923;28;20543;-71
2024/04/01 01:02:34;;;;;;;2.92;0.70;;;;;;;11.41;100.00;93603.72;1031250;28;20026;-72
2024/04/01 01:03:07;;;;;;;3.40;0.60;;;;;;;11.42;100.00;93606.00;1027165;28;20023;-71
2024/04/01 01:03:38;;;;;;;1.45;0.60;;;;;;;11.50;100.00;93597.31;1031082;28;20102;-71
2024/04/01 01:04:08;;;;;;;1.73;0.47;;;;;;;11.49;100.00;93592.38;1035066;28;20560;-72
2024/04/01 01:04:39;;;;;;;5.68;0.73;;;;;;;11.49;100.00;93589.75;1027018;28;20023;-72
2024/04/01 01:05:15;;;;;;;1.20;0.57;;;;;;;11.52;100.00;93584.63;1031001;28;20022;-71
2024/04/01 01:05:46;;;;;;;0.75;0.32;;;;;;;11.50;100.00;93591.28;1030986;28;20022;-72
2024/04/01 01:06:18;;;;;;;2.00;0.55;;;;;;;11.47;100.00;93584.81;1026933;28;20019;-72
2024/04/01 01:06:48;;;;;;;3.67;0.40;;;;;;;11.52;100.00;93589.88;1023077;29;20031;-71
2024/04/01 01:07:19;;;;;;;4.25;0.60;;;;;;;11.53;100.00;93577.50;1022790;28;20027;-71
2024/04/01 01:07:50;;;;;;;2.95;0.40;;;;;;;11.57;100.00;93591.56;1019116;29;20028;-71
2024/04/01 01:08:20;;;;;;;0.00;0.00;;;;;;;11.56;100.00;93590.00;1031041;28;20508;-71
2024/04/01 01:08:51;;;;;;;1.95;0.45;;;;;;;11.55;100.00;93589.22;1030355;28;20476;-71
2024/04/01 01:09:21;;;;;;;1.85;0.50;;;;;;;11.61;100.00;93586.44;1026856;28;20531;-71
2024/04/01 01:09:52;;;;;;;0.85;0.40;;;;;;;11.62;100.00;93582.69;1023088;29;20590;-72
2024/04/01 01:10:23;;;;;;;0.95;0.68;;;;;;;11.62;100.00;93583.47;1023079;28;20034;-71
2024/04/01 01:10:53;;;;;;;1.30;0.47;;;;;;;11.63;100.00;93590.25;1019090;29;20384;-71
2024/04/01 01:11:24;;;;;;;3.55;0.70;;;;;;;11.64;100.00;93586.56;1027031;28;20015;-71
2024/04/01 01:11:56;;;;;;;1.90;0.45;;;;;;;11.64;100.00;93581.28;1023070;29;20110;-72
2024/04/01 01:12:26;;;;;;;1.17;0.70;;;;;;;11.62;100.00;93582.69;1030186;28;20026;-71
2024/04/01 01:12:57;;;;;;;3.40;0.40;;;;;;;11.63;100.00;93581.59;1031136;28;20038;-71
2024/04/01 01:13:28;;;;;;;1.38;0.60;;;;;;;11.57;100.00;93581.81;1033561;28;20030;-71
2024/04/01 01:13:58;;;;;;;4.65;0.55;;;;;;;11.57;100.00;93570.53;1030812;28;20097;-73
2024/04/01 01:14:28;;;;;;;0.30;0.22;;;;;;;11.63;100.00;93584.22;1027016;28;20555;-71
2024/04/01 01:14:59;;;;;;;1.05;0.50;;;;;;;11.61;100.00;93570.66;1026846;28;20477;-71
2024/04/01 01:15:30;;;;;;;3.72;0.35;;;;;;;11.58;100.00;93558.94;1030913;28;20786;-71
2024/04/01 01:16:00;;;;;;;4.68;0.50;;;;;;;11.64;100.00;93565.53;1032117;28;20024;-73
2024/04/01 01:16:31;;;;;;;2.22;0.50;;;;;;;11.64;100.00;93564.78;1031015;28;20034;-71
2024/04/01 01:17:01;;;;;;;1.05;0.52;;;;;;;11.66;100.00;93552.06;1029781;28;20029;-72
2024/04/01 01:17:32;;;;;;;2.60;0.55;;;;;;;11.70;100.00;93548.50;1022949;28;20393;-73
2024/04/01 01:18:03;;;;;;;0.75;0.32;;;;;;;11.68;100.00;93550.66;1025303;28;20396;-71
2024/04/01 01:18:33;;;;;;;0.30;0.20;;;;;;;11.71;100.00;93549.25;1032336;28;20122;-71
2024/04/01 01:19:06;;;;;;;6.82;0.75;;;;;;;11.73;100.00;93553.06;1030288;28;20022;-72
2024/04/01 01:19:37;;;;;;;2.00;0.65;;;;;;;11.74;100.00;93552.00;1019382;29;20028;-72
2024/04/01 01:20:11;;;;;;;1.00;0.40;;;;;;;11.75;100.00;93556.16;1022807;29;20035;-72
2024/04/01 01:20:42;;;;;;;5.53;0.90;;;;;;;11.74;100.00;93548.59;1024907;28;20038;-71
2024/04/01 01:21:12;;;;;;;3.92;0.88;;;;;;;11.71;100.00;93555.28;1028293;28;20033;-71
2024/04/01 01:21:43;;;;;;;0.85;0.28;;;;;;;11.71;100.00;93565.00;1026915;28;20031;-71
2024/04/01 01:22:14;;;;;;;1.48;0.60;;;;;;;11.72;100.00;93562.06;1026516;28;20022;-72
2024/04/01 01:22:44;;;;;;;1.23;0.25;;;;;;;11.70;100.00;93559.00;1030683;28;20037;-71
2024/04/01 01:23:15;;;;;;;3.33;1.02;;;;;;;11.63;100.00;93547.44;1030944;28;20518;-72
2024/04/01 01:23:45;;;;;;;6.32;0.50;;;;;;;11.70;100.00;93555.56;1029190;28;20507;-71
2024/04/01 01:24:16;;;;;;;4.68;0.60;;;;;;;11.74;100.00;93543.34;1022789;28;20109;-71
2024/04/01 01:24:46;;;;;;;1.63;0.40;;;;;;;11.70;100.00;93537.97;1030871;28;20053;-72
2024/04/01 01:25:17;;;;;;;3.83;0.80;;;;;;;11.79;100.00;93545.75;1030817;28;20037;-72
2024/04/01 01:25:48;;;;;;;3.95;0.60;;;;;;;11.79;100.00;93537.88;1027011;28;20093;-72
2024/04/01 01:26:18;;;;;;;0.52;0.50;;;;;;;11.80;100.00;93531.53;1030681;28;20034;-71
2024/04/01 01:26:49;;;;;;;0.93;0.50;;;;;;;11.79;100.00;93524.75;1022983;28;20039;-71
2024/04/01 01:27:19;;;;;;;2.42;0.40;;;;;;;11.80;100.00;93521.81;1026825;28;20037;-71
2024/04/01 01:27:49;;;;;;;1.75;0.17;;;;;;;11.83;100.00;93520.38;1026972;28;20038;-72
2024/04/01 01:28:20;;;;;;;3.55;0.70;;;;;;;11.77;100.00;93511.94;1034717;28;20034;-71
2024/04/01 01:28:51;;;;;;;4.00;0.52;;;;;;;11.82;100.00;93513.59;1034153;28;20037;-70
2024/04/01 01:29:21;;;;;;;2.00;0.30;;;;;;;11.82;100.00;93513.59;1034817;28;20506;-71
2024/04/01 01:29:52;;;;;;;2.53;0.50;;;;;;;11.79;100.00;93514.22;1025198;28;20603;-71
2024/04/01 01:30:22;;;;;;;3.75;0.40;;;;;;;11.78;100.00;93510.09;1030854;28;20030;-72
2024/04/01 01:30:53;;;;;;;5.60;0.60;;;;;;;11.78;100.00;93517.97;1030733;28;20022;-71
2024/04/01 01:31:23;;;;;;;1.65;0.40;;;;;;;11.69;100.00;93510.16;1030899;28;20033;-71
2024/04/01 01:31:53;;;;;;;4.82;0.40;;;;;;;11.72;100.00;93508.75;1026892;28;20050;-71
2024/04/01 01:32:25;;;;;;;3.13;0.75;;;;;;;11.71;100.00;93523.75;1025202;28;20089;-71
2024/04/01 01:32:55;;;;;;;2.17;0.65;;;;;;;11.74;100.00;93514.44;1034817;28;20041;-71
2024/04/01 01:33:26;;;;;;;2.25;0.40;;;;;;;11.73;100.00;93508.41;1030864;28;20030;-72
2024/04/01 01:33:57;;;;;;;2.85;0.50;;;;;;;11.77;100.00;93516.44;1024539;28;20104;-72
2024/04/01 01:34:27;;;;;;;1.50;0.77;;;;;;;11.76;100.00;93499.13;1023614;28;20031;-72
2024/04/01 01:34:58;;;;;;;2.65;0.75;;;;;;;11.80;100.00;93507.88;1030955;28;20019;-72
2024/04/01 01:35:28;;;;;;;1.38;0.50;;;;;;;11.75;100.00;93500.97;1034865;28;20030;-71
2024/04/01 01:35:58;;;;;;;1.08;0.28;;;;;;;11.78;100.00;93499.56;1026930;28;20118;-71
2024/04/01 01:36:29;;;;;;;2.38;0.45;;;;;;;11.83;100.00;93488.84;1022723;28;20034;-71
2024/04/01 01:36:59;;;;;;;1.65;0.22;;;;;;;11.86;100.00;93496.09;1022846;29;20659;-71
2024/04/01 01:37:30;;;;;;;1.98;0.65;;;;;;;11.86;100.00;93493.47;1022917;28;20404;-71
2024/04/01 01:38:00;;;;;;;2.83;0.60;;;;;;;11.84;100.00;93474.66;1022883;28;20417;-71
2024/04/01 01:38:31;;;;;;;3.25;0.52;;;;;;;11.91;100.00;93488.03;1026878;28;20018;-71
2024/04/01 01:39:05;;;;;;;0.90;0.50;;;;;;;11.96;100.00;93493.06;1030205;28;20038;-71
2024/04/01 01:39:36;;;;;;;2.78;0.63;;;;;;;11.95;100.00;93491.53;1027535;28;20046;-71
2024/04/01 01:40:08;;;;;;;5.05;0.60;;;;;;;11.99;100.00;93497.66;1027520;28;20062;-72
2024/04/01 01:40:39;;;;;;;5.03;0.60;;;;;;;12.00;100.00;93499.22;1030634;28;20522;-71
2024/04/01 01:41:09;;;;;;;3.22;0.28;;;;;;;11.96;100.00;93503.56;1027600;28;20025;-71
2024/04/01 01:41:40;;;;;;;2.33;0.38;;;;;;;12.02;100.00;93502.28;1031150;28;20388;-71
2024/04/01 01:42:10;;;;;;;1.70;0.30;;;;;;;12.06;100.00;93504.25;1034978;28;20111;-71
2024/04/01 01:42:41;;;;;;;1.10;0.40;;;;;;;11.98;100.00;93490.88;1034761;28;20041;-71
2024/04/01 01:43:11;;;;;;;4.53;0.50;;;;;;;12.03;100.00;93485.41;1034831;28;20038;-71
2024/04/01 01:43:43;;;;;;;1.65;0.52;;;;;;;12.10;100.00;93484.09;1030772;28;20030;-72
2024/04/01 01:44:13;;;;;;;2.30;0.40;;;;;;;12.23;100.00;93498.78;1026767;28;20027;-72
2024/04/01 01:44:44;;;;;;;4.95;0.50;;;;;;;12.24;100.00;93492.47;1022928;28;20039;-71
2024/04/01 01:45:14;;;;;;;2.83;0.32;;;;;;;12.23;100.00;93490.91;1023053;28;20034;-71
2024/04/01 01:45:45;;;;;;;3.00;0.73;;;;;;;12.23;100.00;93490.91;1021477;29;20397;-71
2024/04/01 01:46:15;;;;;;;1.00;0.20;;;;;;;12.21;100.00;93490.47;1026932;28;20026;-71
2024/04/01 01:46:46;;;;;;;1.48;0.40;;;;;;;12.19;100.00;93501.31;1030827;28;20042;-71
2024/04/01 01:47:17;;;;;;;0.98;0.20;;;;;;;12.19;100.00;93505.81;1031026;28;20400;-71
2024/04/01 01:47:47;;;;;;;2.90;0.95;;;;;;;12.24;100.00;93493.22;1034797;28;20026;-71
2024/04/01 01:48:18;;;;;;;2.58;0.57;;;;;;;12.28;100.00;93498.59;1030677;28;20036;-72
2024/04/01 01:48:48;;;;;;;3.25;0.57;;;;;;;12.23;100.00;93490.91;1030276;28;20030;-71
2024/04/01 01:49:18;;;;;;;0.93;0.50;;;;;;;12.22;100.00;93499.88;1030757;28;20042;-71
2024/04/01 01:49:49;;;;;;;0.85;0.47;;;;;;;12.20;100.00;93505.47;1032179;28;20400;-70
2024/04/01 01:50:19;;;;;;;0.82;0.30;;;;;;;12.23;100.00;93506.69;1030685;28;20034;-71
2024/04/01 01:50:50;;;;;;;4.00;0.77;;;;;;;12.27;100.00;93502.28;1028169;28;20058;-71
2024/04/01 01:51:21;;;;;;;1.85;0.47;;;;;;;12.30;100.00;93496.38;1034648;28;20029;-71
2024/04/01 01:51:51;;;;;;;2.30;0.40;;;;;;;12.28;100.00;93498.59;1026886;28;20038;-72
2024/04/01 01:52:21;;;;;;;2.25;0.35;;;;;;;12.26;100.00;93506.03;1026704;28;20047;-71
2024/04/01 01:52:52;;;;;;;4.40;0.60;;;;;;;12.23;100.00;93501.41;1030785;28;20033;-71
2024/04/01 01:53:22;;;;;;;4.18;0.30;;;;;;;12.29;100.00;93510.63;1024120;28;20068;-71
2024/04/01 01:53:53;;;;;;;2.65;0.45;;;;;;;12.27;100.00;93518.06;1026910;28;20612;-72
2024/04/01 01:54:23;;;;;;;4.68;0.40;;;;;;;12.27;100.00;93516.22;1033174;28;20446;-71
2024/04/01 01:54:54;;;;;;;3.20;0.50;;;;;;;12.31;100.00;93521.59;1026930;28;20026;-71
2024/04/01 01:55:24;;;;;;;2.30;0.63;;;;;;;12.32;100.00;93523.13;1034766;28;20036;-72
2024/04/01 01:55:55;;;;;;;2.58;0.98;;;;;;;12.28;100.00;93517.00;1029814;28;20035;-72
2024/04/01 01:56:25;;;;;;;3.50;0.50;;;;;;;12.31;100.00;93513.72;1030710;28;20031;-71
2024/04/01 01:56:56;;;;;;;1.58;0.30;;;;;;;12.39;100.00;93519.94;1034690;28;20021;-72
2024/04/01 01:57:27;;;;;;;1.55;0.30;;;;;;;12.40;100.00;93510.97;1030868;28;20026;-72
2024/04/01 01:57:57;;;;;;;1.13;0.20;;;;;;;12.45;100.00;93510.75;1022845;28;20023;-71
2024/04/01 01:58:28;;;;;;;1.90;0.50;;;;;;;12.44;100.00;93506.56;1018780;29;20044;-71
2024/04/01 01:58:58;;;;;;;0.95;0.38;;;;;;;12.43;100.00;93489.25;1023635;28;20107;-71
2024/04/01 01:59:29;;;;;;;1.98;0.40;;;;;;;12.47;100.00;93487.50;1034681;28;20029;-71
2024/04/01 01:59:59;;;;;;;0.70;0.20;;;;;;;12.47;100.00;93484.88;1034977;28;20014;-71
2024/04/01 02:00:30;;;;;;;0.73;0.32;;;;;;;12.46;100.00;93476.22;1030774;28;20061;-71
2024/04/01 02:01:00;;;;;;;1.30;0.30;;;;;;;12.46;100.00;93481.47;1034762;28;20034;-71
2024/04/01 02:01:31;;;;;;;0.73;0.32;;;;;;;12.43;100.00;93470.84;1030982;28;20030;-73
2024/04/01 02:02:01;;;;;;;0.40;0.20;;;;;;;12.42;100.00;93471.97;1034911;28;20101;-71
2024/04/01 02:02:32;;;;;;;1.35;0.55;;;;;;;12.41;100.00;93475.69;1038680;28;20033;-71
2024/04/01 02:03:06;;;;;;;2.95;0.35;;;;;;;12.40;100.00;93480.16;1026874;28;20480;-71
2024/04/01 02:03:37;;;;;;;1.00;0.30;;;;;;;12.41;100.00;93475.69;1022786;29;20050;-71
2024/04/01 02:04:08;;;;;;;3.25;0.40;;;;;;;12.42;100.00;93483.25;1023372;28;20023;-72
2024/04/01 02:04:39;;;;;;;9.57;0.40;;;;;;;12.43;100.00;93478.75;1028227;28;20022;-71
2024/04/01 02:05:09;;;;;;;1.70;0.30;;;;;;;12.42;100.00;93474.59;1030856;28;20022;-71
2024/04/01 02:05:41;;;;;;;1.63;0.30;;;;;;;12.40;100.00;93474.13;1022655;28;20039;-71
2024/04/01 02:06:13;;;;;;;0.43;0.28;;;;;;;12.39;100.00;93462.84;1027187;28;20082;-71
2024/04/01 02:06:44;;;;;;;1.55;0.30;;;;;;;12.42;100.00;93464.06;1019459;29;20122;-71
2024/04/01 02:07:14;;;;;;;3.95;0.57;;;;;;;12.41;100.00;93463.31;1023592;28;20035;-71
2024/04/01 02:07:45;;;;;;;1.27;0.35;;;;;;;12.43;100.00;93455.84;1026758;28;20023;-71
2024/04/01 02:08:15;;;;;;;4.85;0.30;;;;;;;12.41;100.00;93455.41;1026821;28;20030;-72
2024/04/01 02:08:45;;;;;;;3.30;0.50;;;;;;;12.36;100.00;93446.97;1030767;28;20022;-72
2024/04/01 02:09:16;;;;;;;1.30;0.40;;;;;;;12.36;100.00;93439.09;1030751;28;20107;-73
2024/04/01 02:09:46;;;;;;;1.33;0.20;;;;;;;12.33;100.00;93429.97;1030639;28;20603;-71
2024/04/01 02:10:23;;;;;;;1.98;0.50;;;;;;;12.35;100.00;93430.44;1022943;28;20401;-71
2024/04/01 02:10:56;;;;;;;0.32;0.30;;;;;;;12.32;100.00;93425.81;1023851;28;20031;-71
2024/04/01 02:11:26;;;;;;;4.15;0.40;;;;;;;12.31;100.00;93429.56;1020095;29;20035;-72
2024/04/01 02:11:57;;;;;;;9.40;0.70;;;;;;;12.36;100.00;93425.94;1024987;28;20079;-71
2024/04/01 02:12:28;;;;;;;2.65;0.20;;;;;;;12.28;100.00;93409.19;1032621;28;20018;-72
2024/04/01 02:12:59;;;;;;;1.08;0.22;;;;;;;12.33;100.00;93416.06;1026990;28;20034;-71
2024/04/01 02:13:29;;;;;;;0.60;0.22;;;;;;;12.36;100.00;93418.81;1034894;28;20022;-71
2024/04/01 02:14:00;;;;;;;0.98;0.38;;;;;;;12.29;100.00;93400.19;1035231;28;20029;-71
2024/04/01 02:14:30;;;;;;;0.98;0.35;;;;;;;12.33;100.00;93406.31;1031007;28;20022;-71
2024/04/01 02:15:02;;;;;;;2.35;0.57;;;;;;;12.35;100.00;93390.97;1034884;28;20545;-71
2024/04/01 02:15:32;;;;;;;5.80;0.75;;;;;;;12.45;100.00;93398.41;1030742;28;20026;-71
2024/04/01 02:16:06;;;;;;;1.27;0.30;;;;;;;12.47;100.00;93388.34;1034899;28;20499;-72
2024/04/01 02:16:37;;;;;;;1.75;0.45;;;;;;;12.52;100.00;93397.84;1035663;28;20022;-71
2024/04/01 02:17:07;;;;;;;0.82;0.30;;;;;;;12.54;100.00;93394.88;1030720;28;20023;-73
2024/04/01 02:17:38;;;;;;;0.95;0.50;;;;;;;12.50;100.00;93400.03;1030793;28;20026;-71
2024/04/01 02:18:08;;;;;;;2.97;0.20;;;;;;;12.51;100.00;93396.34;1025671;28;20033;-71
2024/04/01 02:18:39;;;;;;;0.60;0.10;;;;;;;12.49;100.00;93396.66;1021858;28;20019;-72
2024/04/01 02:19:09;;;;;;;1.70;0.60;;;;;;;12.53;100.00;93398.63;1022206;29;20409;-72
2024/04/01 02:19:42;;;;;;;1.73;0.28;;;;;;;12.56;100.00;93403.22;1026888;28;20081;-71
2024/04/01 02:20:15;;;;;;;0.90;0.55;;;;;;;12.57;100.00;93397.63;1027075;28;20066;-72
2024/04/01 02:20:51;;;;;;;1.00;0.28;;;;;;;12.64;100.00;93404.94;1031358;28;20067;-72
2024/04/01 02:21:21;;;;;;;1.02;0.40;;;;;;;12.61;100.00;93411.66;1034752;28;20057;-71
2024/04/01 02:21:52;;;;;;;0.50;0.22;;;;;;;12.59;100.00;93416.47;1034855;28;20025;-72
2024/04/01 02:22:22;;;;;;;1.20;0.35;;;;;;;12.59;100.00;93424.38;1034012;28;20033;-71
2024/04/01 02:22:53;;;;;;;2.13;0.20;;;;;;;12.59;100.00;93434.13;1034872;28;20025;-71